Time;durP1;ratioP1;P1;durP2;ratioP2;P2;SDS_P1;SDS_P2;PMS_P1;PMS_P2;Temp;Humidity;BMP_temperature;BMP_pressure;BME280_temperature;BME280_humidity;BME280_pressure;Samples;Min_cycle;Max_cycle;Signal;HPM_P1;HPM_P2
2023/06/24 00:00:42;;;;;;;9.73;5.70;;;;;;;12.82;100.00;97074.53;7400430;19;20956;-69
2023/06/24 00:03:09;;;;;;;7.27;6.60;;;;;;;12.94;100.00;97068.50;7397209;19;20393;-69
2023/06/24 00:05:38;;;;;;;5.80;5.23;;;;;;;13.31;100.00;97078.25;7397856;19;20461;-69
2023/06/24 00:08:09;;;;;;;6.83;6.23;;;;;;;13.31;100.00;97072.94;7399126;19;20355;-69
2023/06/24 00:10:36;;;;;;;6.17;5.67;;;;;;;13.50;100.00;97074.38;7399542;19;20440;-69
2023/06/24 00:13:04;;;;;;;7.03;6.43;;;;;;;13.24;100.00;97061.31;7397505;19;20408;-69
2023/06/24 00:15:30;;;;;;;6.97;6.40;;;;;;;12.94;100.00;97053.34;7399345;19;20408;-69
2023/06/24 00:18:05;;;;;;;6.63;6.00;;;;;;;12.92;100.00;97060.09;7397819;19;20382;-68
2023/06/24 00:20:33;;;;;;;9.10;8.20;;;;;;;12.86;100.00;97043.59;7398276;19;20346;-69
2023/06/24 00:23:00;;;;;;;7.83;7.10;;;;;;;12.69;100.00;97025.13;7399037;19;20349;-69
2023/06/24 00:25:27;;;;;;;7.57;6.27;;;;;;;12.56;100.00;97024.28;7397951;19;20414;-69
2023/06/24 00:27:54;;;;;;;7.17;6.57;;;;;;;12.54;100.00;97010.53;7399290;19;20345;-69
2023/06/24 00:30:23;;;;;;;7.80;6.63;;;;;;;12.59;100.00;97023.63;7396379;19;20377;-69
2023/06/24 00:32:50;;;;;;;8.03;7.07;;;;;;;12.69;100.00;97028.56;7397579;19;20345;-69
2023/06/24 00:35:17;;;;;;;7.03;6.33;;;;;;;12.76;100.00;97030.69;7395629;19;20440;-69
2023/06/24 00:37:46;;;;;;;7.67;6.97;;;;;;;12.69;100.00;97030.44;7397662;19;20374;-68
2023/06/24 00:40:16;;;;;;;7.13;6.40;;;;;;;12.74;100.00;97043.50;7396204;19;20858;-69
2023/06/24 00:42:45;;;;;;;5.90;5.40;;;;;;;12.84;100.00;97045.03;7399676;19;20355;-69
2023/06/24 00:45:12;;;;;;;7.07;6.47;;;;;;;12.59;100.00;97030.81;7394588;19;20420;-69
2023/06/24 00:47:40;;;;;;;13.17;6.70;;;;;;;12.71;100.00;97025.59;7397950;19;20744;-69
2023/06/24 00:50:08;;;;;;;7.87;7.13;;;;;;;12.56;100.00;97018.19;7396142;19;20369;-69
2023/06/24 00:52:37;;;;;;;8.60;7.80;;;;;;;12.61;100.00;97037.34;7397746;19;20381;-68
2023/06/24 00:55:04;;;;;;;8.57;7.07;;;;;;;12.42;100.00;97000.66;7395550;19;20415;-69
2023/06/24 00:57:31;;;;;;;7.43;6.73;;;;;;;12.38;100.00;97005.00;7400106;19;20377;-69
2023/06/24 00:59:59;;;;;;;10.50;8.23;;;;;;;12.58;100.00;97019.41;7402260;19;20387;-69
2023/06/24 01:02:27;;;;;;;8.87;6.53;;;;;;;12.42;100.00;97024.50;7404892;19;20396;-69
2023/06/24 01:04:56;;;;;;;7.97;7.27;;;;;;;12.48;100.00;97022.44;7396153;19;20441;-69
2023/06/24 01:07:24;;;;;;;9.00;8.10;;;;;;;12.31;100.00;96991.50;7395693;19;20374;-69
2023/06/24 01:09:51;;;;;;;8.40;7.53;;;;;;;12.46;100.00;97013.25;7396280;19;20384;-68
2023/06/24 01:12:18;;;;;;;8.00;7.30;;;;;;;12.25;100.00;96989.34;7393975;19;20916;-69
2023/06/24 01:14:45;;;;;;;9.53;8.70;;;;;;;12.39;100.00;97027.00;7395163;19;20952;-68
2023/06/24 01:17:17;;;;;;;8.93;7.53;;;;;;;12.36;100.00;97023.13;7394118;19;20382;-68
2023/06/24 01:20:13;;;;;;;10.10;9.10;;;;;;;12.34;100.00;97019.25;7396198;19;20436;-68
2023/06/24 01:23:11;;;;;;;10.00;9.00;;;;;;;12.30;100.00;97011.16;7395612;19;20386;-68
2023/06/24 01:25:53;;;;;;;12.57;10.13;;;;;;;12.44;100.00;97016.22;7395569;19;20944;-68
2023/06/24 01:28:20;;;;;;;10.30;9.30;;;;;;;12.32;100.00;97002.88;7396375;19;20719;-68
2023/06/24 01:31:08;;;;;;;10.80;9.70;;;;;;;12.28;100.00;96994.75;7395320;19;20384;-68
2023/06/24 01:34:06;;;;;;;10.27;9.00;;;;;;;12.21;100.00;96997.16;7394424;19;20381;-68
2023/06/24 01:36:37;;;;;;;9.90;8.93;;;;;;;11.95;100.00;96973.41;7391641;19;20433;-68
2023/06/24 01:39:08;;;;;;;10.00;9.10;;;;;;;12.22;100.00;96995.28;7395096;19;20377;-68
2023/06/24 01:41:41;;;;;;;17.13;10.40;;;;;;;12.23;100.00;96992.31;7393957;19;20377;-68
2023/06/24 01:44:12;;;;;;;10.03;9.13;;;;;;;12.10;100.00;96974.75;7395089;19;20380;-68
2023/06/24 01:46:44;;;;;;;12.43;9.63;;;;;;;12.09;100.00;96973.97;7397014;19;20440;-68
2023/06/24 01:49:14;;;;;;;10.73;9.10;;;;;;;12.22;100.00;96982.03;7403418;19;20388;-68
2023/06/24 01:51:44;;;;;;;10.10;9.20;;;;;;;12.00;100.00;96949.38;7401859;19;20384;-68
2023/06/24 01:54:19;;;;;;;10.80;9.80;;;;;;;12.24;100.00;96985.13;7403558;19;20387;-68
2023/06/24 01:56:48;;;;;;;10.43;9.43;;;;;;;12.29;100.00;96993.69;7399136;19;20436;-69
2023/06/24 01:59:19;;;;;;;11.67;10.30;;;;;;;12.19;100.00;96996.72;7400466;19;20460;-68
2023/06/24 02:01:47;;;;;;;11.90;9.50;;;;;;;12.04;100.00;96960.91;7402570;19;20376;-68
2023/06/24 02:04:16;;;;;;;12.50;10.63;;;;;;;12.26;100.00;96986.34;7401173;19;20376;-68
2023/06/24 02:06:44;;;;;;;12.30;11.10;;;;;;;12.19;100.00;96986.09;7399200;19;20800;-68
2023/06/24 02:09:13;;;;;;;12.77;11.63;;;;;;;11.99;100.00;96960.31;7400532;19;20384;-68
2023/06/24 02:11:41;;;;;;;15.40;12.57;;;;;;;12.15;100.00;96979.88;7402194;19;20414;-69
2023/06/24 02:14:11;;;;;;;12.63;11.23;;;;;;;12.16;100.00;96970.84;7401108;19;20379;-68
2023/06/24 02:16:40;;;;;;;13.67;12.37;;;;;;;12.03;100.00;96951.41;7399034;19;20984;-68
2023/06/24 02:19:09;;;;;;;14.63;13.13;;;;;;;11.96;100.00;96955.66;7400393;19;21015;-68
2023/06/24 02:21:41;;;;;;;14.57;12.83;;;;;;;11.91;100.00;96953.19;7401970;19;20384;-68
2023/06/24 02:24:08;;;;;;;15.70;14.17;;;;;;;12.02;100.00;96965.75;7401358;19;20733;-68
2023/06/24 02:26:40;;;;;;;14.10;12.67;;;;;;;12.03;100.00;96961.22;7397548;19;20435;-68
2023/06/24 02:29:12;;;;;;;14.80;12.00;;;;;;;12.14;100.00;96986.25;7401255;19;20376;-69
2023/06/24 02:31:39;;;;;;;14.33;12.93;;;;;;;12.14;100.00;96978.31;7399713;19;20720;-68
2023/06/24 02:34:06;;;;;;;17.23;13.20;;;;;;;12.18;100.00;96981.91;7401069;19;20395;-68
2023/06/24 02:36:35;;;;;;;15.10;13.57;;;;;;;12.05;100.00;96967.75;7396858;19;20404;-68
2023/06/24 02:39:02;;;;;;;14.50;13.10;;;;;;;11.84;100.00;96941.19;7400991;19;20373;-68
2023/06/24 02:41:29;;;;;;;14.43;12.40;;;;;;;12.04;100.00;96970.75;7398993;19;20934;-68
2023/06/24 02:43:56;;;;;;;14.37;13.07;;;;;;;12.06;100.00;96966.66;7400453;19;20388;-68
2023/06/24 02:46:25;;;;;;;16.17;13.27;;;;;;;12.02;100.00;96963.09;7397132;19;20444;-68
2023/06/24 02:48:53;;;;;;;18.27;15.20;;;;;;;12.13;100.00;96982.84;7400598;19;20349;-69
2023/06/24 02:51:20;;;;;;;15.33;13.83;;;;;;;12.19;100.00;96985.31;7399282;19;20376;-68
2023/06/24 02:53:49;;;;;;;16.33;14.70;;;;;;;12.26;100.00;96989.00;7400799;19;20396;-69
2023/06/24 02:56:20;;;;;;;15.67;14.10;;;;;;;12.30;100.00;96981.22;7395853;19;20436;-68
2023/06/24 02:58:52;;;;;;;14.23;12.83;;;;;;;12.36;100.00;96993.94;7400518;19;20365;-68
2023/06/24 03:01:25;;;;;;;16.07;14.17;;;;;;;12.16;100.00;96968.19;7399634;19;20372;-68
2023/06/24 03:03:54;;;;;;;19.20;13.10;;;;;;;12.20;100.00;96965.66;7400809;19;20413;-68
2023/06/24 03:06:22;;;;;;;14.63;13.13;;;;;;;12.35;100.00;96988.97;7397518;19;20456;-69
2023/06/24 03:08:50;;;;;;;18.60;15.17;;;;;;;12.42;100.00;96986.59;7400658;19;20380;-68
2023/06/24 03:11:20;;;;;;;16.60;13.80;;;;;;;12.30;100.00;96976.69;7399769;19;20391;-68
2023/06/24 03:13:48;;;;;;;15.47;13.93;;;;;;;12.36;100.00;96975.38;7401075;19;20373;-69
2023/06/24 03:16:24;;;;;;;17.50;15.03;;;;;;;12.40;100.00;96988.78;7397988;19;20447;-69
2023/06/24 03:18:56;;;;;;;17.20;14.17;;;;;;;12.21;100.00;96980.47;7398435;19;20464;-68
2023/06/24 03:21:28;;;;;;;16.57;14.87;;;;;;;12.47;100.00;97017.47;7401289;19;20412;-69
2023/06/24 03:24:02;;;;;;;15.97;14.30;;;;;;;12.46;100.00;97000.78;7398259;19;20921;-69
2023/06/24 03:26:34;;;;;;;15.63;13.97;;;;;;;12.57;100.00;97027.72;7398229;19;20429;-68
2023/06/24 03:29:03;;;;;;;16.00;14.37;;;;;;;12.50;100.00;97006.19;7400109;19;20396;-68
2023/06/24 03:31:31;;;;;;;21.77;12.70;;;;;;;12.72;100.00;97033.22;7401169;19;20381;-68
2023/06/24 03:33:59;;;;;;;22.50;14.13;;;;;;;12.68;100.00;97036.81;7399042;19;20704;-69
2023/06/24 03:36:27;;;;;;;17.30;14.70;;;;;;;12.49;100.00;97012.59;7398854;19;20452;-68
2023/06/24 03:38:54;;;;;;;15.80;14.20;;;;;;;12.56;100.00;97013.66;7399030;19;20370;-69
2023/06/24 03:41:21;;;;;;;19.70;15.00;;;;;;;12.62;100.00;97038.91;7399948;19;20367;-68
2023/06/24 03:43:48;;;;;;;17.93;14.27;;;;;;;12.60;100.00;97027.84;7398298;19;20380;-69
2023/06/24 03:46:15;;;;;;;17.60;13.83;;;;;;;12.71;100.00;97028.25;7397888;19;20448;-69
2023/06/24 03:48:43;;;;;;;14.83;13.30;;;;;;;12.86;100.00;97048.91;7398391;19;20369;-69
2023/06/24 03:51:10;;;;;;;15.03;13.50;;;;;;;12.78;100.00;97017.09;7396746;19;20387;-69
2023/06/24 03:53:38;;;;;;;20.00;13.80;;;;;;;12.72;100.00;97037.75;7397960;19;20369;-68
2023/06/24 03:56:05;;;;;;;15.90;13.63;;;;;;;12.63;100.00;97037.81;7396560;19;20401;-69
2023/06/24 03:58:32;;;;;;;19.23;15.23;;;;;;;12.97;100.00;97067.88;7398261;19;20452;-68
2023/06/24 04:01:01;;;;;;;17.67;14.73;;;;;;;12.81;100.00;97061.56;7396912;19;20380;-68
2023/06/24 04:03:28;;;;;;;15.90;13.67;;;;;;;12.85;100.00;97063.28;7397877;19;20417;-69
2023/06/24 04:05:55;;;;;;;16.10;14.00;;;;;;;12.80;100.00;97067.97;7395031;19;20512;-69
2023/06/24 04:08:25;;;;;;;18.70;13.77;;;;;;;12.67;100.00;97056.50;7395559;19;20376;-69
2023/06/24 04:10:52;;;;;;;20.50;15.33;;;;;;;12.65;100.00;97075.41;7396345;19;20902;-69
2023/06/24 04:13:19;;;;;;;16.03;13.83;;;;;;;12.46;100.00;97061.78;7397784;19;20369;-68
2023/06/24 04:15:46;;;;;;;19.37;17.37;;;;;;;12.19;100.00;97025.09;7394982;19;20508;-69
2023/06/24 04:18:14;;;;;;;17.37;15.20;;;;;;;12.52;100.00;97081.69;7398253;19;20376;-69
2023/06/24 04:20:41;;;;;;;16.60;14.60;;;;;;;12.55;100.00;97082.94;7396625;19;20381;-69
2023/06/24 04:23:10;;;;;;;21.90;18.13;;;;;;;12.65;100.00;97079.94;7397863;19;20902;-68
2023/06/24 04:25:37;;;;;;;19.57;17.57;;;;;;;12.61;100.00;97079.78;7397035;19;20515;-69
2023/06/24 04:28:04;;;;;;;21.97;17.50;;;;;;;12.59;100.00;97060.78;7398001;19;20385;-69
2023/06/24 04:30:32;;;;;;;21.47;17.67;;;;;;;12.57;100.00;97044.41;7396772;19;20387;-69
2023/06/24 04:33:01;;;;;;;20.13;18.03;;;;;;;12.88;100.00;97088.38;7397824;19;20365;-69
2023/06/24 04:35:30;;;;;;;19.87;17.43;;;;;;;12.74;100.00;97088.63;7395737;19;20794;-69
2023/06/24 04:37:57;;;;;;;18.97;16.00;;;;;;;12.54;100.00;97042.38;7398480;19;20369;-69
2023/06/24 04:40:24;;;;;;;19.73;17.63;;;;;;;12.97;100.00;97092.56;7396556;19;20460;-69
2023/06/24 04:42:50;;;;;;;18.97;16.10;;;;;;;13.11;100.00;97083.56;7398023;19;20408;-68
2023/06/24 04:45:17;;;;;;;27.53;19.07;;;;;;;13.24;100.00;97095.84;7395081;19;20436;-69
2023/06/24 04:47:45;;;;;;;18.33;16.53;;;;;;;13.34;100.00;97089.34;7398103;19;20914;-69
2023/06/24 04:50:12;;;;;;;21.33;18.63;;;;;;;13.25;100.00;97094.72;7396290;19;20408;-69
2023/06/24 04:52:39;;;;;;;17.57;15.80;;;;;;;13.04;100.00;97092.03;7398951;19;20341;-69
2023/06/24 04:55:07;;;;;;;19.63;17.70;;;;;;;12.91;100.00;97063.84;7396928;19;20406;-69
2023/06/24 04:57:36;;;;;;;21.17;17.43;;;;;;;13.11;100.00;97084.34;7399380;19;20349;-69
2023/06/24 05:00:04;;;;;;;20.23;16.47;;;;;;;13.16;100.00;97092.09;7396715;19;20369;-68
2023/06/24 05:02:31;;;;;;;22.20;18.47;;;;;;;13.15;100.00;97079.16;7394675;19;20372;-69
2023/06/24 05:04:58;;;;;;;22.20;19.40;;;;;;;13.17;100.00;97114.13;7395261;19;20420;-68
2023/06/24 05:07:25;;;;;;;22.10;18.10;;;;;;;12.90;100.00;97084.31;7394314;19;20955;-68
2023/06/24 05:09:53;;;;;;;20.17;18.10;;;;;;;13.16;100.00;97104.59;7398041;19;20354;-68
2023/06/24 05:12:20;;;;;;;21.33;18.00;;;;;;;13.02;100.00;97081.72;7394352;19;20379;-68
2023/06/24 05:14:53;;;;;;;20.20;18.07;;;;;;;13.22;100.00;97100.66;7395503;19;20497;-68
2023/06/24 05:17:20;;;;;;;22.33;17.77;;;;;;;13.34;100.00;97106.03;7394851;19;20448;-68
2023/06/24 05:19:48;;;;;;;22.80;19.33;;;;;;;13.12;100.00;97087.75;7395546;19;20337;-68
2023/06/24 05:22:15;;;;;;;20.90;18.50;;;;;;;13.08;100.00;97073.56;7394526;19;20897;-68
2023/06/24 05:24:42;;;;;;;20.40;18.30;;;;;;;13.45;100.00;97111.75;7395166;19;20397;-68
2023/06/24 05:27:08;;;;;;;20.13;17.73;;;;;;;13.36;100.00;97098.56;7394349;19;20428;-68
2023/06/24 05:29:35;;;;;;;19.77;17.30;;;;;;;13.45;100.00;97117.84;7395673;19;20392;-68
2023/06/24 05:32:03;;;;;;;17.67;15.97;;;;;;;13.41;100.00;97124.91;7395825;19;20932;-69
2023/06/24 05:34:31;;;;;;;19.10;16.40;;;;;;;13.52;100.00;97093.41;7395838;19;20405;-68
2023/06/24 05:36:58;;;;;;;16.97;15.40;;;;;;;13.81;100.00;97125.19;7394448;19;20338;-68
2023/06/24 05:39:25;;;;;;;18.03;16.07;;;;;;;13.73;100.00;97115.41;7395776;19;20344;-68
2023/06/24 05:41:52;;;;;;;17.27;15.57;;;;;;;14.05;100.00;97139.69;7395709;19;20353;-69
2023/06/24 05:44:20;;;;;;;16.57;14.87;;;;;;;14.28;100.00;97151.47;7395403;19;20733;-68
2023/06/24 05:46:47;;;;;;;16.57;14.90;;;;;;;14.15;100.00;97132.03;7392474;19;20444;-68
2023/06/24 05:49:14;;;;;;;15.47;14.00;;;;;;;14.43;100.00;97150.84;7395890;19;20412;-68
2023/06/24 05:51:40;;;;;;;17.03;15.17;;;;;;;14.07;100.00;97143.56;7394124;19;20358;-68
2023/06/24 05:54:08;;;;;;;17.13;15.37;;;;;;;14.16;100.00;97152.25;7395439;19;20364;-68
2023/06/24 05:56:36;;;;;;;15.47;13.87;;;;;;;14.24;100.00;97141.81;7394996;19;20448;-68
2023/06/24 05:59:06;;;;;;;16.77;15.07;;;;;;;14.22;100.00;97125.44;7402754;19;20453;-68
2023/06/24 06:01:33;;;;;;;16.80;14.53;;;;;;;14.46;100.00;97133.47;7402585;19;20365;-68
2023/06/24 06:04:00;;;;;;;15.20;13.50;;;;;;;14.36;100.00;97153.28;7412175;19;20377;-69
2023/06/24 06:06:27;;;;;;;15.57;13.97;;;;;;;14.52;100.00;97134.03;7394450;19;20968;-68
2023/06/24 06:08:54;;;;;;;13.30;12.10;;;;;;;14.83;100.00;97158.25;7395686;19;20341;-69
2023/06/24 06:11:21;;;;;;;15.80;14.27;;;;;;;15.12;100.00;97180.44;7393890;19;20373;-68
2023/06/24 06:13:48;;;;;;;13.33;11.93;;;;;;;15.37;100.00;97173.97;7397049;19;20349;-68
2023/06/24 06:16:15;;;;;;;13.63;12.43;;;;;;;15.06;100.00;97158.53;7392386;19;20417;-69
2023/06/24 06:18:42;;;;;;;12.07;10.87;;;;;;;15.38;100.00;97156.84;7393848;19;20370;-69
2023/06/24 06:21:09;;;;;;;12.97;11.67;;;;;;;15.27;100.00;97177.06;7393616;19;20730;-69
2023/06/24 06:23:35;;;;;;;12.57;11.37;;;;;;;15.69;100.00;97174.91;7392268;19;20355;-69
2023/06/24 06:26:02;;;;;;;14.10;11.73;;;;;;;15.93;100.00;97182.81;7393811;19;20442;-69
2023/06/24 06:28:29;;;;;;;12.50;11.40;;;;;;;15.80;100.00;97183.97;7392185;19;20366;-69
2023/06/24 06:30:57;;;;;;;12.60;11.40;;;;;;;15.85;100.00;97167.72;7394183;19;20345;-69
2023/06/24 06:33:24;;;;;;;13.57;12.27;;;;;;;16.35;100.00;97186.97;7399479;19;20381;-69
2023/06/24 06:35:50;;;;;;;13.63;11.07;;;;;;;16.44;100.00;97175.03;7399717;19;20440;-69
2023/06/24 06:38:17;;;;;;;11.67;10.40;;;;;;;16.25;100.00;97167.66;7399360;19;20433;-69
2023/06/24 06:40:44;;;;;;;10.33;9.37;;;;;;;16.54;100.00;97174.50;7401646;19;20373;-69
2023/06/24 06:43:11;;;;;;;10.47;9.37;;;;;;;16.58;100.00;97185.28;7399614;19;20408;-71
2023/06/24 06:45:38;;;;;;;10.50;9.50;;;;;;;16.86;100.00;97179.09;7399568;19;20437;-69
2023/06/24 06:48:07;;;;;;;9.97;9.00;;;;;;;16.53;100.00;97164.16;7399308;19;20347;-69
2023/06/24 06:50:34;;;;;;;11.30;10.13;;;;;;;16.90;100.00;97185.31;7402555;19;20342;-69
2023/06/24 06:53:01;;;;;;;10.77;9.77;;;;;;;17.15;100.00;97192.00;7399949;19;20385;-69
2023/06/24 06:55:29;;;;;;;9.77;8.73;;;;;;;17.60;100.00;97163.94;7399709;19;20418;-69
2023/06/24 06:57:56;;;;;;;9.53;8.70;;;;;;;17.25;100.00;97178.09;7399554;19;20386;-69
2023/06/24 07:00:23;;;;;;;8.87;8.07;;;;;;;18.06;100.00;97180.94;7401111;19;20391;-69
2023/06/24 07:02:50;;;;;;;9.17;8.37;;;;;;;17.36;100.00;97138.22;7399287;19;20369;-69
2023/06/24 07:05:17;;;;;;;7.10;6.40;;;;;;;18.14;100.00;97152.41;7400043;19;20482;-69
2023/06/24 07:07:45;;;;;;;7.80;6.83;;;;;;;18.04;100.00;97161.03;7399873;19;20378;-69
2023/06/24 07:10:13;;;;;;;7.80;7.10;;;;;;;18.27;100.00;97184.00;7400883;19;20379;-69
2023/06/24 07:12:40;;;;;;;7.83;7.13;;;;;;;18.54;100.00;97184.09;7399923;19;20400;-69
2023/06/24 07:15:07;;;;;;;8.53;7.73;;;;;;;18.46;100.00;97182.44;7412363;19;20414;-69
2023/06/24 07:17:37;;;;;;;10.70;7.67;;;;;;;18.28;100.00;97166.81;7422849;19;20366;-69
2023/06/24 07:20:05;;;;;;;6.97;6.40;;;;;;;18.56;100.00;97147.00;7422263;19;20351;-69
2023/06/24 07:22:32;;;;;;;7.43;6.83;;;;;;;18.62;100.00;97177.72;7400312;19;20382;-70
2023/06/24 07:25:00;;;;;;;7.90;6.93;;;;;;;18.79;100.00;97179.94;7400117;19;20412;-70
2023/06/24 07:27:27;;;;;;;7.37;6.67;;;;;;;19.15;100.00;97151.78;7397557;19;20475;-70
2023/06/24 07:29:54;;;;;;;8.40;6.97;;;;;;;19.16;100.00;97188.19;7400359;19;20389;-70
2023/06/24 07:32:21;;;;;;;7.73;7.03;;;;;;;19.08;100.00;97157.03;7400595;19;20351;-69
2023/06/24 07:34:48;;;;;;;6.53;6.03;;;;;;;19.52;100.00;97187.94;7399934;19;20426;-69
2023/06/24 07:37:15;;;;;;;10.70;7.20;;;;;;;19.89;100.00;97174.59;7398645;19;20753;-70
2023/06/24 07:39:51;;;;;;;7.27;6.67;;;;;;;19.87;100.00;97168.81;7398048;19;20748;-70
2023/06/24 07:42:21;;;;;;;8.87;7.97;;;;;;;19.42;100.00;97170.53;7398813;19;20371;-70
2023/06/24 07:44:48;;;;;;;6.87;6.27;;;;;;;20.29;100.00;97184.63;7397526;19;20406;-70
2023/06/24 07:47:18;;;;;;;6.60;6.00;;;;;;;19.94;100.00;97171.59;7396888;19;20396;-70
2023/06/24 07:49:45;;;;;;;8.03;7.23;;;;;;;19.85;100.00;97181.84;7397275;19;20391;-69
2023/06/24 07:52:12;;;;;;;8.67;7.87;;;;;;;19.23;100.00;97168.78;7400361;19;20412;-69
2023/06/24 07:54:39;;;;;;;8.17;7.00;;;;;;;19.61;100.00;97159.69;7396997;19;20706;-69
2023/06/24 07:57:06;;;;;;;8.77;7.87;;;;;;;19.78;100.00;97180.63;7399175;19;20372;-69
2023/06/24 07:59:33;;;;;;;8.67;7.87;;;;;;;19.76;100.00;97176.75;7399343;19;20751;-69
2023/06/24 08:02:00;;;;;;;8.80;7.90;;;;;;;19.87;100.00;97187.63;7398606;19;20943;-69
2023/06/24 08:04:26;;;;;;;7.97;7.17;;;;;;;19.25;100.00;97155.75;7398589;19;20358;-69
2023/06/24 08:06:54;;;;;;;8.80;8.00;;;;;;;19.26;100.00;97175.31;7397520;19;20691;-69
2023/06/24 08:09:21;;;;;;;10.77;8.13;;;;;;;19.66;100.00;97166.69;7398404;19;20345;-69
2023/06/24 08:11:48;;;;;;;8.70;6.47;;;;;;;19.25;100.00;97171.84;7398513;19;20386;-69
2023/06/24 08:14:15;;;;;;;7.73;6.90;;;;;;;19.18;100.00;97177.09;7396863;19;20696;-69
2023/06/24 08:16:42;;;;;;;7.70;7.00;;;;;;;19.42;100.00;97170.53;7397992;19;20407;-69
2023/06/24 08:19:08;;;;;;;7.80;7.00;;;;;;;19.39;100.00;97184.69;7397029;19;20413;-69
2023/06/24 08:21:37;;;;;;;6.10;5.60;;;;;;;19.46;100.00;97161.41;7398367;19;20384;-69
2023/06/24 08:24:05;;;;;;;5.63;5.13;;;;;;;19.87;100.00;97177.66;7397282;19;20944;-69
2023/06/24 08:26:32;;;;;;;4.77;4.37;;;;;;;20.23;100.00;97184.19;7394496;19;20837;-69
2023/06/24 08:28:59;;;;;;;6.23;5.73;;;;;;;20.49;100.00;97207.53;7397066;19;20389;-69
2023/06/24 08:31:30;;;;;;;6.47;4.60;;;;;;;19.98;100.00;97175.09;7398799;19;20376;-69
2023/06/24 08:33:59;;;;;;;5.20;4.80;;;;;;;20.61;100.00;97198.44;7398506;19;20365;-69
2023/06/24 08:36:29;;;;;;;5.03;4.50;;;;;;;20.71;100.00;97181.63;7397228;19;20783;-69
2023/06/24 08:38:56;;;;;;;5.40;4.90;;;;;;;20.38;100.00;97193.19;7398559;19;20893;-69
2023/06/24 08:41:26;;;;;;;5.23;4.83;;;;;;;21.07;100.00;97201.47;7393859;19;20392;-69
2023/06/24 08:43:55;;;;;;;5.60;5.10;;;;;;;21.44;100.00;97198.69;7396687;19;20971;-69
2023/06/24 08:46:24;;;;;;;6.83;4.73;;;;;;;21.41;100.00;97206.75;7393732;19;20417;-69
2023/06/24 08:49:06;;;;;;;4.57;4.17;;;;;;;21.30;100.00;97201.31;7399129;19;20387;-69
2023/06/24 08:51:40;;;;;;;4.27;3.97;;;;;;;21.18;100.00;97193.50;7396713;19;20472;-69
2023/06/24 08:54:09;;;;;;;3.60;3.30;;;;;;;20.74;100.00;97209.69;7396738;19;20390;-69
2023/06/24 08:56:40;;;;;;;4.07;3.20;;;;;;;21.33;100.00;97210.53;7394617;19;20426;-69
2023/06/24 08:59:08;;;;;;;4.93;4.50;;;;;;;20.96;100.00;97214.84;7399206;19;20379;-69
2023/06/24 09:01:36;;;;;;;5.67;4.50;;;;;;;20.90;100.00;97213.66;7397635;19;20685;-69
2023/06/24 09:04:03;;;;;;;4.80;3.60;;;;;;;21.08;100.00;97221.84;7397633;19;20364;-69
2023/06/24 09:06:31;;;;;;;4.53;4.23;;;;;;;20.97;100.00;97202.19;7394605;19;20458;-69
2023/06/24 09:08:58;;;;;;;4.57;4.27;;;;;;;21.72;98.97;97218.84;7399252;19;20875;-69
2023/06/24 09:11:27;;;;;;;4.43;4.10;;;;;;;21.14;99.75;97217.69;7397706;19;20372;-69
2023/06/24 09:13:58;;;;;;;5.00;4.60;;;;;;;20.90;100.00;97210.97;7395159;19;20376;-69
2023/06/24 09:16:26;;;;;;;5.60;4.50;;;;;;;20.61;100.00;97196.50;7396890;19;20415;-69
2023/06/24 09:18:53;;;;;;;4.40;4.00;;;;;;;20.86;100.00;97214.78;7395362;19;20397;-69
2023/06/24 09:21:30;;;;;;;5.03;4.60;;;;;;;20.85;100.00;97213.25;7396255;19;20362;-69
2023/06/24 09:23:58;;;;;;;6.27;4.27;;;;;;;20.84;98.69;97206.31;7395324;19;20410;-70
2023/06/24 09:26:27;;;;;;;4.47;3.97;;;;;;;21.15;98.03;97181.56;7395229;19;20446;-69
2023/06/24 09:28:56;;;;;;;4.90;4.37;;;;;;;21.33;98.19;97211.31;7395274;19;20374;-69
2023/06/24 09:31:23;;;;;;;3.93;3.53;;;;;;;20.91;92.44;97190.22;7398317;19;20714;-69
2023/06/24 09:33:51;;;;;;;4.90;4.40;;;;;;;20.41;95.01;97178.22;7396910;19;20410;-69
2023/06/24 09:36:18;;;;;;;4.33;4.03;;;;;;;20.67;95.89;97178.88;7395039;19;20407;-70
2023/06/24 09:38:45;;;;;;;4.67;4.13;;;;;;;21.29;95.10;97177.47;7395040;19;20351;-70
2023/06/24 09:41:14;;;;;;;3.90;3.60;;;;;;;21.31;89.86;97189.38;7396966;19;20905;-70
2023/06/24 09:43:44;;;;;;;4.10;3.70;;;;;;;21.34;89.51;97190.56;7394942;19;20381;-70
2023/06/24 09:46:12;;;;;;;6.73;3.90;;;;;;;21.61;91.08;97197.25;7392009;19;20438;-70
2023/06/24 09:48:39;;;;;;;4.67;4.10;;;;;;;21.59;88.09;97167.25;7394970;19;20945;-70
2023/06/24 09:51:08;;;;;;;6.03;4.27;;;;;;;21.30;89.49;97192.44;7393753;19;20397;-70
2023/06/24 09:53:37;;;;;;;4.77;4.33;;;;;;;21.77;91.79;97180.81;7396484;19;20393;-70
2023/06/24 09:56:06;;;;;;;5.20;4.80;;;;;;;21.34;86.12;97182.47;7393749;19;20412;-70
2023/06/24 09:58:36;;;;;;;8.90;4.30;;;;;;;21.94;91.42;97184.72;7394978;19;20399;-70
2023/06/24 10:01:05;;;;;;;5.20;4.60;;;;;;;22.16;90.65;97178.25;7393348;19;20421;-70
2023/06/24 10:03:36;;;;;;;4.83;4.33;;;;;;;21.45;87.96;97175.25;7395733;19;20727;-70
2023/06/24 10:06:05;;;;;;;5.67;5.10;;;;;;;21.90;86.08;97176.59;7392604;19;20434;-70
2023/06/24 10:08:33;;;;;;;4.33;3.80;;;;;;;21.59;88.43;97167.25;7403442;19;20378;-70
2023/06/24 10:11:01;;;;;;;5.87;4.60;;;;;;;21.64;90.26;97161.50;7401219;19;20373;-70
2023/06/24 10:13:29;;;;;;;4.43;4.10;;;;;;;21.57;88.73;97153.38;7403308;19;20378;-70
2023/06/24 10:15:57;;;;;;;7.70;4.30;;;;;;;22.00;90.96;97175.88;7399090;19;20443;-70
2023/06/24 10:18:35;;;;;;;4.87;4.43;;;;;;;21.69;85.58;97144.22;7403080;19;20381;-70
2023/06/24 10:21:06;;;;;;;6.57;4.90;;;;;;;21.65;87.83;97163.06;7401383;19;20978;-70
2023/06/24 10:23:47;;;;;;;4.93;4.53;;;;;;;22.20;88.49;97162.88;7401753;19;20346;-70
2023/06/24 10:26:28;;;;;;;4.73;4.33;;;;;;;21.63;88.90;97161.88;7401479;19;20437;-70
2023/06/24 10:29:05;;;;;;;5.10;4.60;;;;;;;21.47;86.21;97152.19;7402277;19;20362;-70
2023/06/24 10:31:42;;;;;;;5.43;4.90;;;;;;;21.65;85.11;97163.06;7403984;19;20373;-70
2023/06/24 10:34:27;;;;;;;6.07;4.00;;;;;;;21.72;85.69;97154.22;7401504;19;20369;-70
2023/06/24 10:37:01;;;;;;;5.17;4.87;;;;;;;21.81;88.29;97146.56;7400306;19;20702;-70
2023/06/24 10:39:40;;;;;;;5.30;4.90;;;;;;;22.09;83.36;97156.69;7404301;19;20367;-70
2023/06/24 10:42:25;;;;;;;5.83;4.10;;;;;;;22.35;85.76;97153.66;7400851;19;20455;-70
2023/06/24 10:44:56;;;;;;;5.83;5.23;;;;;;;21.42;86.95;97095.28;7398992;19;20378;-70
2023/06/24 10:47:24;;;;;;;4.60;4.20;;;;;;;22.23;83.03;97148.66;7399603;19;20373;-70
2023/06/24 10:49:51;;;;;;;3.90;3.70;;;;;;;22.93;83.64;97141.75;7399258;19;20769;-70
2023/06/24 10:52:22;;;;;;;7.70;4.97;;;;;;;22.69;83.07;97115.53;7402526;19;20883;-70
2023/06/24 10:54:51;;;;;;;5.77;3.83;;;;;;;22.75;78.83;97113.25;7399161;19;20958;-70
2023/06/24 10:57:23;;;;;;;6.03;5.07;;;;;;;22.77;81.16;97135.22;7401248;19;20381;-70
2023/06/24 10:59:53;;;;;;;5.20;4.70;;;;;;;22.94;79.18;97139.84;7399795;19;20346;-70
2023/06/24 11:02:22;;;;;;;5.20;4.80;;;;;;;22.53;76.19;97134.03;7402985;19;20427;-70
2023/06/24 11:04:55;;;;;;;5.30;4.80;;;;;;;23.48;75.95;97146.66;7399819;19;20386;-70
2023/06/24 11:07:23;;;;;;;4.90;4.50;;;;;;;23.46;76.01;97138.19;7402522;19;20709;-70
2023/06/24 11:09:55;;;;;;;4.93;4.53;;;;;;;23.34;74.89;97138.59;7400215;19;20351;-71
2023/06/24 11:12:27;;;;;;;4.73;4.43;;;;;;;23.17;73.49;97128.63;7398536;19;20931;-70
2023/06/24 11:15:03;;;;;;;5.07;4.57;;;;;;;23.46;73.66;97130.09;7399524;19;20389;-70
2023/06/24 11:17:30;;;;;;;6.10;5.60;;;;;;;23.42;74.17;97142.84;7399841;19;20367;-70
2023/06/24 11:19:58;;;;;;;4.90;4.50;;;;;;;22.37;75.22;97123.63;7401462;19;20354;-70
2023/06/24 11:22:26;;;;;;;5.33;4.80;;;;;;;23.18;74.81;97130.94;7399063;19;20760;-71
2023/06/24 11:24:54;;;;;;;4.97;4.57;;;;;;;23.40;73.10;97137.06;7399451;19;20418;-70
2023/06/24 11:27:29;;;;;;;5.07;4.70;;;;;;;23.10;73.67;97136.72;7398244;19;20387;-71